Buoy 56916

sailwx.info

Track history (hours):
 
Tides and Currents Weather Stations Pressure Air Temp Water Temp Dewpoint Dewpoint Depression Visibility Wind Speed Wind Dir Waves Ship Positions

Drifting buoy 56916

Last reported at 2018-Feb-20 02:00 UTC. Time now 2018-Feb-20 04:04 UTC.
Position S 44°43' W 170°05'.

Barometer 1011.3 mb
Water temperature 17.6 ° C

Date/timePositionNaut miles runAvg speedWind from/ knotsBaromVisibWave heightAir tempDewpointWater temp
2018-Feb-20 02:00S 44°43' W 170°05'3 2.8 1011.3 17.6
2018-Feb-20 01:00S 44°44' W 170°08'0 0.1 1011.2 17.6
2018-Feb-19 22:00S 44°44' W 170°07'0 0.4 1010.0 17.5
2018-Feb-19 21:00S 44°44' W 170°08'1 0.9 1009.7 17.4
2018-Feb-19 20:00S 44°44' W 170°09'0 0.0 1009.4 17.4
2018-Feb-19 19:00S 44°44' W 170°09'1 0.6 1009.1 17.4
2018-Feb-19 18:00S 44°44' W 170°09'0 0.0 1008.5 17.4
2018-Feb-19 17:00S 44°44' W 170°09'1 0.6 1008.2 17.4
2018-Feb-19 16:00S 44°43' W 170°09'0 0.4 1008.2 17.4
2018-Feb-19 15:00S 44°43' W 170°10'1 0.7 1008.2 17.4
2018-Feb-19 14:00S 44°44' W 170°10'1 1.4 1008.2 17.4
2018-Feb-19 13:00S 44°43' W 170°12'0 0.0 1008.5 17.4
2018-Feb-19 11:00S 44°43' W 170°12'0 0.4 1008.8 17.4
2018-Feb-19 10:00S 44°43' W 170°13'1 0.7 1008.8 17.4
2018-Feb-19 09:00S 44°43' W 170°13'1 1.0 1009.3 17.4
2018-Feb-19 08:00S 44°42' W 170°14'1 0.7 1009.5 17.4
2018-Feb-19 07:00S 44°43' W 170°15'1 0.7 1009.6 17.5
2018-Feb-19 06:00S 44°42' W 170°16'0 0.4 1009.6 17.5
2018-Feb-19 05:00S 44°42' W 170°16'0 0.0 1010.0 17.5
2018-Feb-19 04:00S 44°42' W 170°16'0 0.4 1010.3 17.5
2018-Feb-19 03:00S 44°42' W 170°17'2 1.8 1010.7 17.6
2018-Feb-19 02:00S 44°41' W 170°19'4 0.6 1011.3 17.6
2018-Feb-18 20:00S 44°39' W 170°23'1 0.6 1013.7 17.4
2018-Feb-18 18:00S 44°38' W 170°23'1 1.0 1014.3 17.3
2018-Feb-18 17:00S 44°37' W 170°22'0 0.0 1014.2 17.3
2018-Feb-18 16:00S 44°37' W 170°22'0 0.2 1014.7 17.3
2018-Feb-18 14:00S 44°37' W 170°23'0 0.4 1015.4 17.3
2018-Feb-18 13:00S 44°37' W 170°22'1 0.3 1015.9 17.3
2018-Feb-18 10:00S 44°37' W 170°23'0 0.4 1017.2 17.4
2018-Feb-18 09:00S 44°37' W 170°24'0 0.0 1017.5 17.4
2018-Feb-18 08:00S 44°37' W 170°24'0 0.4 1017.6 17.4
2018-Feb-18 07:00S 44°37' W 170°25'1 0.6 1017.2 17.5
2018-Feb-18 06:00S 44°37' W 170°25'0 0.4 1017.0 17.5
2018-Feb-18 05:00S 44°37' W 170°25'1 0.6 1016.5 17.5
2018-Feb-18 04:00S 44°36' W 170°25'0 0.0 1016.6 17.6
2018-Feb-18 03:00S 44°36' W 170°25'0 0.0 1016.6 17.6
2018-Feb-18 02:00S 44°36' W 170°25'1 0.3 1016.3 17.5
2018-Feb-17 21:00S 44°37' W 170°26'1 0.6 1014.4 17.2
2018-Feb-17 20:00S 44°38' W 170°26'0 0.4 1014.1 17.2
2018-Feb-17 19:00S 44°38' W 170°26'1 0.7 1014.0 17.2
2018-Feb-17 18:00S 44°38' W 170°27'0 0.4 1013.2 17.2
2018-Feb-17 17:00S 44°38' W 170°28'1 0.9 1012.5 17.2
2018-Feb-17 16:00S 44°38' W 170°29'3 1.3 1012.9 17.2
2018-Feb-17 14:00S 44°38' W 170°32'1 1.3 1013.0 17.2
2018-Feb-17 13:00S 44°38' W 170°31'2 1.2 1013.1 17.2
2018-Feb-17 11:00S 44°37' W 170°34'0 0.0 1013.2 17.2
2018-Feb-17 10:00S 44°37' W 170°34'1 1.2 1014.0 17.2
2018-Feb-17 09:00S 44°36' W 170°34'0 0.4 1014.4 17.2
2018-Feb-17 08:00S 44°36' W 170°34'0 0.0 1014.6 17.2
2018-Feb-17 07:00S 44°36' W 170°34'0 0.4 1014.1 17.2
2018-Feb-17 06:00S 44°36' W 170°34'0 0.0 1014.0 17.3
2018-Feb-17 05:00S 44°36' W 170°34'1 1.0 1014.0 17.3
2018-Feb-17 04:00S 44°37' W 170°35'0 0.0 1014.6 17.3
2018-Feb-17 03:00S 44°37' W 170°35'4 3.6 1015.0 17.4
2018-Feb-17 02:00S 44°35' W 170°40'0 0.0 1015.3 17.3
2018-Feb-16 21:00S 44°35' W 170°40'1 1.0 1016.9 17.3
2018-Feb-16 20:00S 44°35' W 170°41'1 0.6 1017.2 17.2
2018-Feb-16 19:00S 44°34' W 170°41'1 0.7 1017.2 17.2
2018-Feb-16 18:00S 44°34' W 170°41'1 0.7 1017.4 17.2
2018-Feb-16 17:00S 44°33' W 170°42'0 0.0 1017.4 17.2
2018-Feb-16 16:00S 44°33' W 170°42'0 0.0 1017.1 17.2
2018-Feb-16 15:00S 44°33' W 170°42'1 0.9 1017.2 17.2
2018-Feb-16 14:00S 44°33' W 170°41'1 0.2 1017.4 17.2
2018-Feb-16 10:00S 44°34' W 170°41'1 0.7 1017.9 17.4
2018-Feb-16 09:00S 44°34' W 170°42'1 0.9 1017.8 17.4
2018-Feb-16 08:00S 44°34' W 170°43'1 1.3 1017.8 17.4
2018-Feb-16 07:00S 44°34' W 170°45'1 0.4 1017.5 17.5
2018-Feb-16 05:00S 44°34' W 170°46'1 0.6 1016.9 17.6
2018-Feb-16 04:00S 44°33' W 170°46'1 1.3 1017.0 17.6
2018-Feb-16 03:00S 44°33' W 170°47'0 0.0 1017.2 17.6
2018-Feb-16 02:00S 44°33' W 170°47'3 0.6 1017.5 17.7
2018-Feb-15 21:00S 44°30' W 170°48'0 0.0 1018.0 17.7
2018-Feb-15 20:00S 44°30' W 170°48'1 0.6 1017.5 17.7
2018-Feb-15 19:00S 44°29' W 170°48'0 0.0 1017.5 17.6
2018-Feb-15 18:00S 44°29' W 170°48'1 0.7 1016.9 17.6
2018-Feb-15 17:00S 44°30' W 170°49'0 0.0 1016.4 17.6
2018-Feb-15 16:00S 44°30' W 170°49'0 0.0 1016.3 17.6
2018-Feb-15 15:00S 44°30' W 170°49'0 0.4 1016.1 17.6
2018-Feb-15 14:00S 44°30' W 170°49'1 0.6 1016.0 17.6
2018-Feb-15 13:00S 44°31' W 170°49'1 0.7 1015.8 17.6
2018-Feb-15 12:00S 44°30' W 170°50'0 0.0 1015.7 17.6
2018-Feb-15 11:00S 44°30' W 170°50'0 0.0 1015.4 17.6
2018-Feb-15 10:00S 44°30' W 170°50'0 0.4 1014.8 17.6
2018-Feb-15 09:00S 44°30' W 170°50'1 1.0 1014.4 17.6
2018-Feb-15 08:00S 44°29' W 170°49'1 0.4 1013.9 17.6
2018-Feb-15 06:00S 44°29' W 170°50'1 0.6 1012.2 17.7
2018-Feb-15 05:00S 44°30' W 170°50'0 0.4 1011.5 17.7
2018-Feb-15 04:00S 44°30' W 170°50'0 0.0 1011.1 17.6
2018-Feb-15 03:00S 44°30' W 170°50'0 0.0 1010.7 17.5
2018-Feb-15 02:00S 44°30' W 170°50'2 0.4 1010.0 17.5
2018-Feb-14 21:00S 44°32' W 170°49'1 0.9 1009.9 17.3
2018-Feb-14 20:00S 44°32' W 170°47'0 0.0 1010.0 17.3
2018-Feb-14 19:00S 44°32' W 170°47'1 0.9 1010.7 17.3
2018-Feb-14 18:00S 44°32' W 170°49'1 0.4 1010.6 17.3
2018-Feb-14 16:00S 44°31' W 170°49'1 0.7 1010.4 17.3
2018-Feb-14 15:00S 44°32' W 170°49'0 0.0 1010.8 17.3
2018-Feb-14 14:00S 44°32' W 170°49'0 0.0 1010.6 17.3
2018-Feb-14 13:00S 44°32' W 170°49'0 0.0 1011.4 17.3
2018-Feb-14 12:00S 44°32' W 170°49'0 0.0 1011.8 17.3
2018-Feb-14 10:00S 44°32' W 170°49'0 0.0 1012.1 17.2
2018-Feb-14 09:00S 44°32' W 170°49'0 0.4 1012.5 17.2
2018-Feb-14 08:00S 44°32' W 170°49'1 0.4 1012.5 17.2
2018-Feb-14 06:00S 44°31' W 170°50'1 1.3 1012.0 17.1
2018-Feb-14 05:00S 44°32' W 170°49'0 0.4 1011.6 17.1
2018-Feb-14 04:00S 44°32' W 170°50'0 0.0 1011.3 17.1
2018-Feb-14 03:00S 44°32' W 170°50'3 0.5 1011.3 17.1
2018-Feb-13 20:00S 44°31' W 170°54'1 0.7 1012.1 17.0
2018-Feb-13 19:00S 44°32' W 170°55'1 0.7 1012.3 17.0
2018-Feb-13 18:00S 44°31' W 170°55'0 0.0 1012.0 17.0
2018-Feb-13 17:00S 44°31' W 170°55'1 1.0 1012.2 17.0
2018-Feb-13 16:00S 44°31' W 170°56'0 0.0 1012.1 17.0
2018-Feb-13 15:00S 44°31' W 170°56'1 1.0 1012.3 17.0
2018-Feb-13 14:00S 44°31' W 170°58'1 0.7 1012.5 17.0
2018-Feb-13 13:00S 44°31' W 170°58'1 0.4 1012.8 17.1
2018-Feb-13 11:00S 44°30' W 170°59'1 0.7 1013.7 17.1
2018-Feb-13 10:00S 44°31' W 170°58'1 0.7 1014.1 17.1
2018-Feb-13 08:00S 44°29' W 170°59'1 0.4 1014.1 17.1
2018-Feb-13 04:00S 44°29' W 171°01'0 0.0 1014.1 17.1
2018-Feb-13 03:00S 44°29' W 171°01'3 0.5 1014.2 17.1
2018-Feb-12 21:00S 44°27' W 171°05'0 0.0 1015.0 17.2
2018-Feb-12 20:00S 44°27' W 171°05'1 0.6 1015.3 17.2
2018-Feb-12 19:00S 44°26' W 171°05'0 0.4 1015.5 17.2
2018-Feb-12 18:00S 44°26' W 171°05'0 0.0 1015.5 17.2
2018-Feb-12 17:00S 44°26' W 171°05'1 0.5 1015.5 17.3
2018-Feb-12 15:00S 44°26' W 171°07'0 0.4 1015.8 17.4
2018-Feb-12 14:00S 44°26' W 171°07'2 2.1 1016.1 17.5
2018-Feb-12 13:00S 44°25' W 171°10'0 0.0 1016.9 17.5
2018-Feb-12 11:00S 44°25' W 171°10'1 1.3 1018.2 17.6
2018-Feb-12 10:00S 44°23' W 171°09'0 0.4 1018.6 17.6
2018-Feb-12 09:00S 44°23' W 171°10'1 0.7 1019.2 17.6
2018-Feb-12 08:00S 44°23' W 171°10'1 1.2 1019.3 17.6
2018-Feb-12 07:00S 44°22' W 171°10'1 0.6 1019.5 17.6
2018-Feb-12 06:00S 44°21' W 171°10'1 0.7 1019.0 17.7
2018-Feb-12 05:00S 44°20' W 171°11'1 0.7 1019.5 17.7
2018-Feb-12 04:00S 44°20' W 171°10'2 2.4 1020.1 17.7
2018-Feb-12 03:00S 44°17' W 171°10'1 0.7 1021.1 17.7
2018-Feb-12 02:00S 44°17' W 171°10'0 0.0 1021.6 17.7
2018-Feb-12 01:00S 44°17' W 171°10'0 0.0 1022.2 17.7
2018-Feb-11 21:00S 44°17' W 171°10'1 1.3 1024.1 17.8
2018-Feb-11 20:00S 44°16' W 171°09'1 0.6 1024.1 17.8
2018-Feb-11 19:00S 44°15' W 171°09'0 0.4 1024.3 17.7
2018-Feb-11 18:00S 44°15' W 171°10'1 0.7 1024.2 17.7
2018-Feb-11 17:00S 44°14' W 171°09'0 0.4 1024.2 17.7
2018-Feb-11 16:00S 44°14' W 171°08'1 0.6 1024.2 17.7
2018-Feb-11 15:00S 44°14' W 171°08'2 1.2 1024.4 17.7
2018-Feb-11 13:00S 44°12' W 171°06'1 0.3 1025.2 17.7
2018-Feb-11 10:00S 44°11' W 171°05'0 0.0 1026.1 17.8
2018-Feb-11 09:00S 44°11' W 171°05'0 0.0 1026.1 17.9
2018-Feb-11 08:00S 44°11' W 171°05'1 0.6 1025.9 17.9
2018-Feb-11 06:00S 44°10' W 171°05'1 0.9 1025.1 18.0
2018-Feb-11 05:00S 44°10' W 171°04'1 0.7 1025.3 18.1
2018-Feb-11 04:00S 44°10' W 171°03'1 0.7 1025.5 18.1
2018-Feb-11 03:00S 44°09' W 171°02'0 0.0 1025.6 18.2
2018-Feb-11 02:00S 44°09' W 171°02'2 2.5 1025.6 18.1
2018-Feb-11 01:00S 44°08' W 170°59'0 0.1 1025.9 18.1
2018-Feb-10 21:00S 44°08' W 170°59'1 0.7 1025.9 17.8
2018-Feb-10 20:00S 44°07' W 170°58'0 0.0 1025.7 17.9
2018-Feb-10 19:00S 44°07' W 170°58'0 0.4 1025.8 17.8
2018-Feb-10 18:00S 44°07' W 170°58'0 0.4 1025.3 17.9
2018-Feb-10 17:00S 44°07' W 170°57'1 0.7 1024.9 17.9
2018-Feb-10 16:00S 44°07' W 170°56'1 0.5 1024.8 17.9
2018-Feb-10 14:00S 44°06' W 170°55'2 2.2 1024.5 18.0
2018-Feb-10 13:00S 44°05' W 170°52'0 0.0 1024.8 18.1
2018-Feb-10 11:00S 44°05' W 170°52'1 0.9 1025.2 18.4
2018-Feb-10 10:00S 44°05' W 170°51'0 0.0 1025.5 18.4
2018-Feb-10 09:00S 44°05' W 170°51'1 0.9 1025.4 18.5
2018-Feb-10 08:00S 44°05' W 170°50'0 0.0 1025.5 18.4
2018-Feb-10 07:00S 44°05' W 170°50'0 0.4 1024.5 18.8
2018-Feb-10 06:00S 44°05' W 170°50'1 0.5 1024.4 19.3
2018-Feb-10 04:00S 44°05' W 170°49'0 0.4 1024.0 19.9
2018-Feb-10 03:00S 44°05' W 170°49'1 0.6 1023.6 19.9
2018-Feb-10 02:00S 44°04' W 170°49'   1023.9 20.4
Track history (hours):
 
Tides and Currents Weather Stations Pressure Air Temp Water Temp Dewpoint Dewpoint Depression Visibility Wind Speed Wind Dir Waves Ship Positions

Drifting buoy 56916

Last reported at 2018-Feb-20 02:00 UTC. Time now 2018-Feb-20 04:04 UTC.
Position S 44°43' W 170°05'.

Barometer 1011.3 mb
Water temperature 17.6 ° C

Date/timePositionNaut miles runAvg speedWind from/ knotsBaromVisibWave heightAir tempDewpointWater temp
2018-Feb-20 02:00S 44°43' W 170°05'3 2.8 1011.3 17.6
2018-Feb-20 01:00S 44°44' W 170°08'0 0.1 1011.2 17.6
2018-Feb-19 22:00S 44°44' W 170°07'0 0.4 1010.0 17.5
2018-Feb-19 21:00S 44°44' W 170°08'1 0.9 1009.7 17.4
2018-Feb-19 20:00S 44°44' W 170°09'0 0.0 1009.4 17.4
2018-Feb-19 19:00S 44°44' W 170°09'1 0.6 1009.1 17.4
2018-Feb-19 18:00S 44°44' W 170°09'0 0.0 1008.5 17.4
2018-Feb-19 17:00S 44°44' W 170°09'1 0.6 1008.2 17.4
2018-Feb-19 16:00S 44°43' W 170°09'0 0.4 1008.2 17.4
2018-Feb-19 15:00S 44°43' W 170°10'1 0.7 1008.2 17.4
2018-Feb-19 14:00S 44°44' W 170°10'1 1.4 1008.2 17.4
2018-Feb-19 13:00S 44°43' W 170°12'0 0.0 1008.5 17.4
2018-Feb-19 11:00S 44°43' W 170°12'0 0.4 1008.8 17.4
2018-Feb-19 10:00S 44°43' W 170°13'1 0.7 1008.8 17.4
2018-Feb-19 09:00S 44°43' W 170°13'1 1.0 1009.3 17.4
2018-Feb-19 08:00S 44°42' W 170°14'1 0.7 1009.5 17.4
2018-Feb-19 07:00S 44°43' W 170°15'1 0.7 1009.6 17.5
2018-Feb-19 06:00S 44°42' W 170°16'0 0.4 1009.6 17.5
2018-Feb-19 05:00S 44°42' W 170°16'0 0.0 1010.0 17.5
2018-Feb-19 04:00S 44°42' W 170°16'0 0.4 1010.3 17.5
2018-Feb-19 03:00S 44°42' W 170°17'2 1.8 1010.7 17.6
2018-Feb-19 02:00S 44°41' W 170°19'4 0.6 1011.3 17.6
2018-Feb-18 20:00S 44°39' W 170°23'1 0.6 1013.7 17.4
2018-Feb-18 18:00S 44°38' W 170°23'1 1.0 1014.3 17.3
2018-Feb-18 17:00S 44°37' W 170°22'0 0.0 1014.2 17.3
2018-Feb-18 16:00S 44°37' W 170°22'0 0.2 1014.7 17.3
2018-Feb-18 14:00S 44°37' W 170°23'0 0.4 1015.4 17.3
2018-Feb-18 13:00S 44°37' W 170°22'1 0.3 1015.9 17.3
2018-Feb-18 10:00S 44°37' W 170°23'0 0.4 1017.2 17.4
2018-Feb-18 09:00S 44°37' W 170°24'0 0.0 1017.5 17.4
2018-Feb-18 08:00S 44°37' W 170°24'0 0.4 1017.6 17.4
2018-Feb-18 07:00S 44°37' W 170°25'1 0.6 1017.2 17.5
2018-Feb-18 06:00S 44°37' W 170°25'0 0.4 1017.0 17.5
2018-Feb-18 05:00S 44°37' W 170°25'1 0.6 1016.5 17.5
2018-Feb-18 04:00S 44°36' W 170°25'0 0.0 1016.6 17.6
2018-Feb-18 03:00S 44°36' W 170°25'0 0.0 1016.6 17.6
2018-Feb-18 02:00S 44°36' W 170°25'1 0.3 1016.3 17.5
2018-Feb-17 21:00S 44°37' W 170°26'1 0.6 1014.4 17.2
2018-Feb-17 20:00S 44°38' W 170°26'0 0.4 1014.1 17.2
2018-Feb-17 19:00S 44°38' W 170°26'1 0.7 1014.0 17.2
2018-Feb-17 18:00S 44°38' W 170°27'0 0.4 1013.2 17.2
2018-Feb-17 17:00S 44°38' W 170°28'1 0.9 1012.5 17.2
2018-Feb-17 16:00S 44°38' W 170°29'3 1.3 1012.9 17.2
2018-Feb-17 14:00S 44°38' W 170°32'1 1.3 1013.0 17.2
2018-Feb-17 13:00S 44°38' W 170°31'2 1.2 1013.1 17.2
2018-Feb-17 11:00S 44°37' W 170°34'0 0.0 1013.2 17.2
2018-Feb-17 10:00S 44°37' W 170°34'1 1.2 1014.0 17.2
2018-Feb-17 09:00S 44°36' W 170°34'0 0.4 1014.4 17.2
2018-Feb-17 08:00S 44°36' W 170°34'0 0.0 1014.6 17.2
2018-Feb-17 07:00S 44°36' W 170°34'0 0.4 1014.1 17.2
2018-Feb-17 06:00S 44°36' W 170°34'0 0.0 1014.0 17.3
2018-Feb-17 05:00S 44°36' W 170°34'1 1.0 1014.0 17.3
2018-Feb-17 04:00S 44°37' W 170°35'0 0.0 1014.6 17.3
2018-Feb-17 03:00S 44°37' W 170°35'4 3.6 1015.0 17.4
2018-Feb-17 02:00S 44°35' W 170°40'0 0.0 1015.3 17.3
2018-Feb-16 21:00S 44°35' W 170°40'1 1.0 1016.9 17.3
2018-Feb-16 20:00S 44°35' W 170°41'1 0.6 1017.2 17.2
2018-Feb-16 19:00S 44°34' W 170°41'1 0.7 1017.2 17.2
2018-Feb-16 18:00S 44°34' W 170°41'1 0.7 1017.4 17.2
2018-Feb-16 17:00S 44°33' W 170°42'0 0.0 1017.4 17.2
2018-Feb-16 16:00S 44°33' W 170°42'0 0.0 1017.1 17.2
2018-Feb-16 15:00S 44°33' W 170°42'1 0.9 1017.2 17.2
2018-Feb-16 14:00S 44°33' W 170°41'1 0.2 1017.4 17.2
2018-Feb-16 10:00S 44°34' W 170°41'1 0.7 1017.9 17.4
2018-Feb-16 09:00S 44°34' W 170°42'1 0.9 1017.8 17.4
2018-Feb-16 08:00S 44°34' W 170°43'1 1.3 1017.8 17.4
2018-Feb-16 07:00S 44°34' W 170°45'1 0.4 1017.5 17.5
2018-Feb-16 05:00S 44°34' W 170°46'1 0.6 1016.9 17.6
2018-Feb-16 04:00S 44°33' W 170°46'1 1.3 1017.0 17.6
2018-Feb-16 03:00S 44°33' W 170°47'0 0.0 1017.2 17.6
2018-Feb-16 02:00S 44°33' W 170°47'3 0.6 1017.5 17.7
2018-Feb-15 21:00S 44°30' W 170°48'0 0.0 1018.0 17.7
2018-Feb-15 20:00S 44°30' W 170°48'1 0.6 1017.5 17.7
2018-Feb-15 19:00S 44°29' W 170°48'0 0.0 1017.5 17.6
2018-Feb-15 18:00S 44°29' W 170°48'1 0.7 1016.9 17.6
2018-Feb-15 17:00S 44°30' W 170°49'0 0.0 1016.4 17.6
2018-Feb-15 16:00S 44°30' W 170°49'0 0.0 1016.3 17.6
2018-Feb-15 15:00S 44°30' W 170°49'0 0.4 1016.1 17.6
2018-Feb-15 14:00S 44°30' W 170°49'1 0.6 1016.0 17.6
2018-Feb-15 13:00S 44°31' W 170°49'1 0.7 1015.8 17.6
2018-Feb-15 12:00S 44°30' W 170°50'0 0.0 1015.7 17.6
2018-Feb-15 11:00S 44°30' W 170°50'0 0.0 1015.4 17.6
2018-Feb-15 10:00S 44°30' W 170°50'0 0.4 1014.8 17.6
2018-Feb-15 09:00S 44°30' W 170°50'1 1.0 1014.4 17.6
2018-Feb-15 08:00S 44°29' W 170°49'1 0.4 1013.9 17.6
2018-Feb-15 06:00S 44°29' W 170°50'1 0.6 1012.2 17.7
2018-Feb-15 05:00S 44°30' W 170°50'0 0.4 1011.5 17.7
2018-Feb-15 04:00S 44°30' W 170°50'0 0.0 1011.1 17.6
2018-Feb-15 03:00S 44°30' W 170°50'0 0.0 1010.7 17.5
2018-Feb-15 02:00S 44°30' W 170°50'2 0.4 1010.0 17.5
2018-Feb-14 21:00S 44°32' W 170°49'1 0.9 1009.9 17.3
2018-Feb-14 20:00S 44°32' W 170°47'0 0.0 1010.0 17.3
2018-Feb-14 19:00S 44°32' W 170°47'1 0.9 1010.7 17.3
2018-Feb-14 18:00S 44°32' W 170°49'1 0.4 1010.6 17.3
2018-Feb-14 16:00S 44°31' W 170°49'1 0.7 1010.4 17.3
2018-Feb-14 15:00S 44°32' W 170°49'0 0.0 1010.8 17.3
2018-Feb-14 14:00S 44°32' W 170°49'0 0.0 1010.6 17.3
2018-Feb-14 13:00S 44°32' W 170°49'0 0.0 1011.4 17.3
2018-Feb-14 12:00S 44°32' W 170°49'0 0.0 1011.8 17.3
2018-Feb-14 10:00S 44°32' W 170°49'0 0.0 1012.1 17.2
2018-Feb-14 09:00S 44°32' W 170°49'0 0.4 1012.5 17.2
2018-Feb-14 08:00S 44°32' W 170°49'1 0.4 1012.5 17.2
2018-Feb-14 06:00S 44°31' W 170°50'1 1.3 1012.0 17.1
2018-Feb-14 05:00S 44°32' W 170°49'0 0.4 1011.6 17.1
2018-Feb-14 04:00S 44°32' W 170°50'0 0.0 1011.3 17.1
2018-Feb-14 03:00S 44°32' W 170°50'3 0.5 1011.3 17.1
2018-Feb-13 20:00S 44°31' W 170°54'1 0.7 1012.1 17.0
2018-Feb-13 19:00S 44°32' W 170°55'1 0.7 1012.3 17.0
2018-Feb-13 18:00S 44°31' W 170°55'0 0.0 1012.0 17.0
2018-Feb-13 17:00S 44°31' W 170°55'1 1.0 1012.2 17.0
2018-Feb-13 16:00S 44°31' W 170°56'0 0.0 1012.1 17.0
2018-Feb-13 15:00S 44°31' W 170°56'1 1.0 1012.3 17.0
2018-Feb-13 14:00S 44°31' W 170°58'1 0.7 1012.5 17.0
2018-Feb-13 13:00S 44°31' W 170°58'1 0.4 1012.8 17.1
2018-Feb-13 11:00S 44°30' W 170°59'1 0.7 1013.7 17.1
2018-Feb-13 10:00S 44°31' W 170°58'1 0.7 1014.1 17.1
2018-Feb-13 08:00S 44°29' W 170°59'1 0.4 1014.1 17.1
2018-Feb-13 04:00S 44°29' W 171°01'0 0.0 1014.1 17.1
2018-Feb-13 03:00S 44°29' W 171°01'3 0.5 1014.2 17.1
2018-Feb-12 21:00S 44°27' W 171°05'0 0.0 1015.0 17.2
2018-Feb-12 20:00S 44°27' W 171°05'1 0.6 1015.3 17.2
2018-Feb-12 19:00S 44°26' W 171°05'0 0.4 1015.5 17.2
2018-Feb-12 18:00S 44°26' W 171°05'0 0.0 1015.5 17.2
2018-Feb-12 17:00S 44°26' W 171°05'1 0.5 1015.5 17.3
2018-Feb-12 15:00S 44°26' W 171°07'0 0.4 1015.8 17.4
2018-Feb-12 14:00S 44°26' W 171°07'2 2.1 1016.1 17.5
2018-Feb-12 13:00S 44°25' W 171°10'0 0.0 1016.9 17.5
2018-Feb-12 11:00S 44°25' W 171°10'1 1.3 1018.2 17.6
2018-Feb-12 10:00S 44°23' W 171°09'0 0.4 1018.6 17.6
2018-Feb-12 09:00S 44°23' W 171°10'1 0.7 1019.2 17.6
2018-Feb-12 08:00S 44°23' W 171°10'1 1.2 1019.3 17.6
2018-Feb-12 07:00S 44°22' W 171°10'1 0.6 1019.5 17.6
2018-Feb-12 06:00S 44°21' W 171°10'1 0.7 1019.0 17.7
2018-Feb-12 05:00S 44°20' W 171°11'1 0.7 1019.5 17.7
2018-Feb-12 04:00S 44°20' W 171°10'2 2.4 1020.1 17.7
2018-Feb-12 03:00S 44°17' W 171°10'1 0.7 1021.1 17.7
2018-Feb-12 02:00S 44°17' W 171°10'0 0.0 1021.6 17.7
2018-Feb-12 01:00S 44°17' W 171°10'0 0.0 1022.2 17.7
2018-Feb-11 21:00S 44°17' W 171°10'1 1.3 1024.1 17.8
2018-Feb-11 20:00S 44°16' W 171°09'1 0.6 1024.1 17.8
2018-Feb-11 19:00S 44°15' W 171°09'0 0.4 1024.3 17.7
2018-Feb-11 18:00S 44°15' W 171°10'1 0.7 1024.2 17.7
2018-Feb-11 17:00S 44°14' W 171°09'0 0.4 1024.2 17.7
2018-Feb-11 16:00S 44°14' W 171°08'1 0.6 1024.2 17.7
2018-Feb-11 15:00S 44°14' W 171°08'2 1.2 1024.4 17.7
2018-Feb-11 13:00S 44°12' W 171°06'1 0.3 1025.2 17.7
2018-Feb-11 10:00S 44°11' W 171°05'0 0.0 1026.1 17.8
2018-Feb-11 09:00S 44°11' W 171°05'0 0.0 1026.1 17.9
2018-Feb-11 08:00S 44°11' W 171°05'1 0.6 1025.9 17.9
2018-Feb-11 06:00S 44°10' W 171°05'1 0.9 1025.1 18.0
2018-Feb-11 05:00S 44°10' W 171°04'1 0.7 1025.3 18.1
2018-Feb-11 04:00S 44°10' W 171°03'1 0.7 1025.5 18.1
2018-Feb-11 03:00S 44°09' W 171°02'0 0.0 1025.6 18.2
2018-Feb-11 02:00S 44°09' W 171°02'2 2.5 1025.6 18.1
2018-Feb-11 01:00S 44°08' W 170°59'0 0.1 1025.9 18.1
2018-Feb-10 21:00S 44°08' W 170°59'1 0.7 1025.9 17.8
2018-Feb-10 20:00S 44°07' W 170°58'0 0.0 1025.7 17.9
2018-Feb-10 19:00S 44°07' W 170°58'0 0.4 1025.8 17.8
2018-Feb-10 18:00S 44°07' W 170°58'0 0.4 1025.3 17.9
2018-Feb-10 17:00S 44°07' W 170°57'1 0.7 1024.9 17.9
2018-Feb-10 16:00S 44°07' W 170°56'1 0.5 1024.8 17.9
2018-Feb-10 14:00S 44°06' W 170°55'2 2.2 1024.5 18.0
2018-Feb-10 13:00S 44°05' W 170°52'0 0.0 1024.8 18.1
2018-Feb-10 11:00S 44°05' W 170°52'1 0.9 1025.2 18.4
2018-Feb-10 10:00S 44°05' W 170°51'0 0.0 1025.5 18.4
2018-Feb-10 09:00S 44°05' W 170°51'1 0.9 1025.4 18.5
2018-Feb-10 08:00S 44°05' W 170°50'0 0.0 1025.5 18.4
2018-Feb-10 07:00S 44°05' W 170°50'0 0.4 1024.5 18.8
2018-Feb-10 06:00S 44°05' W 170°50'1 0.5 1024.4 19.3
2018-Feb-10 04:00S 44°05' W 170°49'0 0.4 1024.0 19.9
2018-Feb-10 03:00S 44°05' W 170°49'1 0.6 1023.6 19.9
2018-Feb-10 02:00S 44°04' W 170°49'   1023.9 20.4

Dump ship's entire track history